Time;durP1;ratioP1;P1;durP2;ratioP2;P2;SDS_P1;SDS_P2;PMS_P1;PMS_P2;Temp;Humidity;BMP_temperature;BMP_pressure;BME280_temperature;BME280_humidity;BME280_pressure;Samples;Min_cycle;Max_cycle;Signal;HPM_P1;HPM_P2
2022/08/17 00:01:02;;;;;;;3.05;2.85;;;25.20;99.90;;;;;;5064149;28;20193;-52
2022/08/17 00:03:31;;;;;;;3.30;3.00;;;25.10;99.90;;;;;;5067554;28;20201;-49
2022/08/17 00:06:01;;;;;;;3.58;3.28;;;25.00;99.90;;;;;;5066771;28;20203;-51
2022/08/17 00:08:33;;;;;;;3.00;2.80;;;25.00;99.90;;;;;;5064552;28;20538;-52
2022/08/17 00:11:02;;;;;;;2.70;2.60;;;25.00;99.90;;;;;;5063746;28;20200;-48
2022/08/17 00:13:32;;;;;;;3.03;2.83;;;25.00;99.90;;;;;;5065628;28;20233;-52
2022/08/17 00:16:03;;;;;;;2.90;2.67;;;25.00;99.90;;;;;;5065139;28;20190;-46
2022/08/17 00:18:31;;;;;;;2.80;2.60;;;25.10;99.90;;;;;;5064906;28;20189;-49
2022/08/17 00:20:59;;;;;;;2.88;2.67;;;25.00;99.90;;;;;;5063422;28;20267;-52
2022/08/17 00:23:29;;;;;;;3.00;2.80;;;25.00;99.90;;;;;;5070116;28;20202;-51
2022/08/17 00:25:56;;;;;;;2.60;2.50;;;24.90;99.90;;;;;;5069877;28;20228;-51
2022/08/17 00:28:24;;;;;;;3.10;2.88;;;25.00;99.90;;;;;;5069429;28;20309;-52
2022/08/17 00:30:52;;;;;;;2.65;2.55;;;25.00;99.90;;;;;;5068638;28;20193;-51
2022/08/17 00:33:22;;;;;;;2.70;2.50;;;25.00;99.90;;;;;;5070560;28;20643;-46
2022/08/17 00:35:50;;;;;;;2.80;2.60;;;25.00;99.90;;;;;;5065978;28;21092;-52
2022/08/17 00:38:17;;;;;;;2.20;2.10;;;25.00;99.90;;;;;;5070552;28;20276;-46
2022/08/17 00:40:50;;;;;;;2.40;2.30;;;25.10;99.90;;;;;;5067395;28;20259;-46
2022/08/17 00:43:19;;;;;;;3.10;2.90;;;25.00;99.90;;;;;;5064449;28;20194;-51
2022/08/17 00:45:47;;;;;;;6.07;2.70;;;25.00;99.90;;;;;;5067206;28;20606;-51
2022/08/17 00:48:15;;;;;;;2.97;2.78;;;25.00;99.90;;;;;;5067191;28;20696;-51
2022/08/17 00:50:49;;;;;;;2.90;2.70;;;25.00;99.90;;;;;;5064357;28;20205;-50
2022/08/17 00:53:16;;;;;;;2.75;2.55;;;25.00;99.90;;;;;;5069322;28;20203;-49
2022/08/17 00:55:45;;;;;;;2.47;2.38;;;25.00;99.90;;;;;;5065662;28;20185;-51
2022/08/17 00:58:12;;;;;;;2.95;2.75;;;25.00;99.90;;;;;;5062700;28;20189;-46
2022/08/17 01:00:42;;;;;;;2.33;2.22;;;25.00;99.90;;;;;;5065609;28;20255;-48
2022/08/17 01:03:13;;;;;;;2.90;2.70;;;25.00;99.90;;;;;;5070060;28;20212;-50
2022/08/17 01:05:41;;;;;;;4.80;2.38;;;25.00;99.90;;;;;;5064245;28;20201;-51
2022/08/17 01:08:13;;;;;;;2.40;2.30;;;25.00;99.90;;;;;;5066793;28;20287;-50
2022/08/17 01:10:43;;;;;;;2.50;2.30;;;25.00;99.90;;;;;;5065450;28;20212;-49
2022/08/17 01:13:13;;;;;;;2.28;2.17;;;25.00;99.90;;;;;;5062889;28;20303;-49
2022/08/17 01:15:46;;;;;;;2.80;2.60;;;24.90;99.90;;;;;;5068081;28;20181;-44
2022/08/17 01:18:14;;;;;;;2.58;2.45;;;24.90;99.90;;;;;;5066992;28;20292;-44
2022/08/17 01:20:46;;;;;;;2.58;2.47;;;24.90;99.90;;;;;;5067316;28;20560;-46
2022/08/17 01:23:16;;;;;;;2.65;2.45;;;24.80;99.90;;;;;;5066654;28;20764;-44
2022/08/17 01:25:43;;;;;;;2.40;2.25;;;24.80;99.90;;;;;;5065781;28;20217;-43
2022/08/17 01:28:10;;;;;;;2.20;2.10;;;24.90;99.90;;;;;;5065952;28;20255;-43
2022/08/17 01:30:38;;;;;;;2.42;2.33;;;25.00;99.90;;;;;;5069071;28;20264;-46
2022/08/17 01:33:04;;;;;;;2.60;2.40;;;25.00;99.90;;;;;;5068015;28;20284;-43
2022/08/17 01:35:32;;;;;;;2.35;2.17;;;25.00;99.90;;;;;;5065960;28;20201;-43
2022/08/17 01:37:59;;;;;;;2.65;2.35;;;25.00;99.90;;;;;;5067026;28;20182;-46
2022/08/17 01:40:34;;;;;;;2.67;2.55;;;25.00;99.90;;;;;;5069557;28;20705;-48
2022/08/17 01:43:11;;;;;;;2.25;2.15;;;25.00;99.90;;;;;;5066272;28;20197;-52
2022/08/17 01:45:43;;;;;;;4.05;2.38;;;25.00;99.90;;;;;;5065279;28;20616;-51
2022/08/17 01:48:11;;;;;;;2.72;2.53;;;25.00;99.90;;;;;;5068448;28;20232;-48
2022/08/17 01:50:41;;;;;;;3.28;2.65;;;25.00;99.90;;;;;;5063545;28;20289;-50
2022/08/17 01:53:12;;;;;;;2.40;2.30;;;25.00;99.90;;;;;;5065004;28;20185;-50
2022/08/17 01:55:45;;;;;;;3.08;2.88;;;24.90;99.90;;;;;;5065232;28;20189;-44
2022/08/17 01:58:12;;;;;;;2.80;2.60;;;25.00;99.90;;;;;;5067572;28;20290;-44
2022/08/17 02:00:42;;;;;;;2.65;2.45;;;25.00;99.90;;;;;;5067062;28;20246;-43
2022/08/17 02:03:09;;;;;;;3.58;3.10;;;25.00;99.90;;;;;;5066741;28;20225;-46
2022/08/17 02:05:36;;;;;;;2.88;2.42;;;25.00;99.90;;;;;;5068160;28;20700;-44
2022/08/17 02:08:06;;;;;;;2.55;2.45;;;25.00;99.90;;;;;;5068785;28;20240;-43
2022/08/17 02:10:33;;;;;;;2.35;2.25;;;25.00;99.90;;;;;;5066853;28;20679;-48
2022/08/17 02:13:04;;;;;;;2.30;2.20;;;25.00;99.90;;;;;;5065955;28;20239;-53
2022/08/17 02:15:32;;;;;;;2.33;2.22;;;25.00;99.90;;;;;;5065210;28;20676;-43
2022/08/17 02:17:59;;;;;;;2.35;2.25;;;25.00;99.90;;;;;;5064099;28;20189;-45
2022/08/17 02:20:26;;;;;;;4.70;2.53;;;25.10;99.90;;;;;;5067291;28;20285;-42
2022/08/17 02:22:53;;;;;;;2.60;2.40;;;25.10;99.90;;;;;;5066713;28;20259;-45
2022/08/17 02:25:21;;;;;;;2.30;2.20;;;25.10;99.90;;;;;;5065511;28;20213;-47
2022/08/17 02:27:51;;;;;;;2.63;2.42;;;25.10;99.90;;;;;;5064677;28;20258;-44
2022/08/17 02:30:20;;;;;;;2.80;2.60;;;25.10;99.90;;;;;;5064350;28;20228;-43
2022/08/17 02:32:47;;;;;;;2.70;2.60;;;25.00;99.90;;;;;;5064284;28;20714;-46
2022/08/17 02:35:14;;;;;;;2.38;2.20;;;25.00;99.90;;;;;;5065367;28;21157;-45
2022/08/17 02:37:41;;;;;;;2.22;2.08;;;25.10;99.90;;;;;;5067208;28;20186;-42
2022/08/17 02:40:10;;;;;;;2.53;2.42;;;25.10;99.90;;;;;;5068672;28;20687;-45
2022/08/17 02:42:38;;;;;;;2.70;2.50;;;25.00;99.90;;;;;;5066191;28;20293;-42
2022/08/17 02:45:09;;;;;;;2.70;2.50;;;25.00;99.90;;;;;;5064405;28;20229;-44
2022/08/17 02:47:39;;;;;;;2.63;2.42;;;25.00;99.90;;;;;;5065590;28;20201;-44
2022/08/17 02:50:08;;;;;;;3.20;2.42;;;25.00;99.90;;;;;;5065479;28;20264;-44
2022/08/17 02:52:37;;;;;;;2.13;2.03;;;25.00;99.90;;;;;;5067821;28;20633;-43
2022/08/17 02:55:05;;;;;;;2.40;2.30;;;24.90;99.90;;;;;;5066434;28;20201;-46
2022/08/17 02:57:32;;;;;;;2.35;2.15;;;24.90;99.90;;;;;;5066231;28;20204;-52
2022/08/17 02:59:59;;;;;;;2.63;2.42;;;24.90;99.90;;;;;;5064219;28;20244;-50
2022/08/17 03:02:26;;;;;;;2.33;2.22;;;24.90;99.90;;;;;;5062942;28;20221;-48
2022/08/17 03:04:55;;;;;;;2.67;2.58;;;24.90;99.90;;;;;;5066661;28;20221;-52
2022/08/17 03:07:22;;;;;;;2.78;2.47;;;24.90;99.90;;;;;;5068786;28;20698;-50
2022/08/17 03:09:49;;;;;;;2.88;2.67;;;24.90;99.90;;;;;;5062567;28;20312;-51
2022/08/17 03:12:16;;;;;;;2.58;2.47;;;24.80;99.90;;;;;;5064574;28;20261;-52
2022/08/17 03:14:44;;;;;;;2.53;2.33;;;24.70;99.90;;;;;;5064348;28;20564;-51
2022/08/17 03:17:11;;;;;;;2.20;2.10;;;24.80;99.90;;;;;;5063305;28;20279;-49
2022/08/17 03:19:38;;;;;;;2.60;2.40;;;24.80;99.90;;;;;;5065328;28;20220;-50
2022/08/17 03:22:08;;;;;;;3.20;3.00;;;24.80;99.90;;;;;;5067685;28;20193;-52
2022/08/17 03:24:35;;;;;;;2.90;2.70;;;24.80;99.90;;;;;;5068154;28;20268;-51
2022/08/17 03:27:03;;;;;;;3.97;2.80;;;24.80;99.90;;;;;;5066498;28;20228;-52
2022/08/17 03:29:30;;;;;;;5.35;3.10;;;24.80;99.90;;;;;;5067496;28;20205;-49
2022/08/17 03:31:57;;;;;;;2.95;2.67;;;24.80;99.90;;;;;;5067141;28;20228;-51
2022/08/17 03:34:24;;;;;;;2.40;2.30;;;24.70;99.90;;;;;;5066304;28;20304;-51
2022/08/17 03:36:51;;;;;;;2.60;2.50;;;24.70;99.90;;;;;;5064618;28;20276;-51
2022/08/17 03:39:20;;;;;;;2.70;2.50;;;24.70;99.90;;;;;;5069771;28;20669;-51
2022/08/17 03:41:47;;;;;;;2.83;2.63;;;24.70;99.90;;;;;;5067557;28;20219;-49
2022/08/17 03:44:14;;;;;;;3.08;2.88;;;24.60;99.90;;;;;;5066749;28;20217;-49
2022/08/17 03:57:40;;;;;;;3.40;3.20;;;24.60;99.90;;;;;;5063479;28;20194;-45
2022/08/17 04:00:08;;;;;;;3.42;3.13;;;24.60;99.90;;;;;;5067068;28;20220;-52
2022/08/17 04:02:39;;;;;;;2.60;2.50;;;24.60;99.90;;;;;;5063769;28;20193;-52
2022/08/17 04:05:06;;;;;;;2.53;2.40;;;24.60;99.90;;;;;;5066720;28;20641;-48
2022/08/17 04:07:33;;;;;;;8.57;3.33;;;24.50;99.90;;;;;;5064074;28;20668;-48
2022/08/17 04:10:02;;;;;;;4.93;3.75;;;24.50;99.90;;;;;;5065271;28;20277;-46
2022/08/17 04:12:41;;;;;;;3.50;3.20;;;24.50;99.90;;;;;;5067106;28;20445;-48
2022/08/17 04:15:11;;;;;;;3.42;3.22;;;24.50;99.90;;;;;;5063539;28;20676;-45
2022/08/17 04:17:38;;;;;;;3.00;2.80;;;24.50;99.90;;;;;;5064733;28;20197;-45
2022/08/17 04:20:06;;;;;;;5.57;3.60;;;24.50;99.90;;;;;;5064637;28;20280;-51
2022/08/17 04:22:33;;;;;;;3.00;2.80;;;24.50;99.90;;;;;;5066026;28;20198;-48
2022/08/17 04:25:06;;;;;;;3.50;3.20;;;24.50;99.90;;;;;;5063936;28;20207;-50
2022/08/17 04:27:33;;;;;;;3.30;3.00;;;24.50;99.90;;;;;;5064875;28;20201;-54
2022/08/17 04:30:01;;;;;;;2.20;2.10;;;24.60;99.90;;;;;;5062954;28;20225;-49
2022/08/17 04:32:28;;;;;;;3.88;2.83;;;24.50;99.90;;;;;;5063132;28;20231;-48
2022/08/17 04:34:55;;;;;;;2.80;2.70;;;24.50;99.90;;;;;;5058078;28;20194;-48
2022/08/17 04:37:22;;;;;;;2.65;2.45;;;24.50;99.90;;;;;;5065836;28;20266;-49
2022/08/17 04:42:05;;;;;;;2.65;2.55;;;24.40;99.90;;;;;;5064050;28;20190;-51
2022/08/17 04:42:37;;;;;;;2.75;2.60;;;24.40;99.90;;;;;;5067392;28;20197;-52
2022/08/17 04:45:04;;;;;;;2.70;2.50;;;24.40;99.90;;;;;;5067441;28;20213;-49
2022/08/17 04:47:32;;;;;;;2.55;2.45;;;24.50;99.90;;;;;;5067226;28;20251;-52
2022/08/17 04:50:01;;;;;;;2.70;2.50;;;24.50;99.90;;;;;;5062654;28;20268;-50
2022/08/17 04:52:28;;;;;;;2.50;2.40;;;24.50;99.90;;;;;;5064234;28;20321;-52
2022/08/17 04:54:55;;;;;;;2.60;2.50;;;24.50;99.90;;;;;;5064427;28;20264;-52
2022/08/17 04:57:22;;;;;;;2.50;2.38;;;24.50;99.90;;;;;;5066840;28;20637;-52
2022/08/17 04:59:50;;;;;;;2.70;2.50;;;24.50;99.90;;;;;;5060829;28;20299;-53
2022/08/17 05:02:17;;;;;;;2.60;2.40;;;24.60;99.90;;;;;;5066091;28;20197;-49
2022/08/17 05:04:44;;;;;;;2.38;2.28;;;24.60;99.90;;;;;;5061887;28;20229;-51
2022/08/17 05:07:11;;;;;;;2.75;2.55;;;24.60;99.90;;;;;;5068091;28;20189;-52
2022/08/17 05:09:38;;;;;;;2.65;2.55;;;24.70;99.90;;;;;;5068778;28;20685;-47
2022/08/17 05:12:05;;;;;;;2.60;2.40;;;24.70;99.90;;;;;;5068511;28;20328;-49
2022/08/17 05:14:33;;;;;;;2.53;2.42;;;24.80;99.90;;;;;;5065623;28;20556;-47
2022/08/17 05:17:01;;;;;;;2.30;2.20;;;24.80;99.90;;;;;;5071241;28;20204;-50
2022/08/17 05:19:28;;;;;;;2.30;2.20;;;24.90;99.90;;;;;;5064947;28;20213;-52
2022/08/17 05:21:55;;;;;;;2.22;2.13;;;24.90;99.90;;;;;;5067151;28;20201;-52
2022/08/17 05:24:22;;;;;;;2.50;2.30;;;25.00;99.90;;;;;;5067247;28;20259;-52
2022/08/17 05:26:49;;;;;;;2.67;2.47;;;25.00;99.90;;;;;;5067678;28;20206;-52
2022/08/17 05:29:17;;;;;;;2.60;2.40;;;25.10;99.90;;;;;;5067321;28;20237;-50
2022/08/17 05:31:44;;;;;;;3.17;2.13;;;25.10;99.90;;;;;;5068045;28;20198;-47
2022/08/17 05:34:13;;;;;;;2.63;2.42;;;25.10;99.90;;;;;;5066767;28;20258;-50
2022/08/17 05:36:40;;;;;;;2.50;2.35;;;25.20;99.90;;;;;;5065130;28;20706;-52
2022/08/17 05:39:07;;;;;;;2.80;2.60;;;25.20;99.90;;;;;;5070115;28;20664;-48
2022/08/17 05:41:34;;;;;;;2.80;2.60;;;25.30;99.90;;;;;;5068173;28;20280;-46
2022/08/17 05:44:02;;;;;;;2.70;2.53;;;25.30;99.90;;;;;;5067442;28;20193;-51
2022/08/17 05:46:32;;;;;;;2.30;2.20;;;25.30;99.90;;;;;;5066346;28;20197;-55
2022/08/17 05:49:03;;;;;;;2.45;2.30;;;25.40;99.90;;;;;;5069657;28;20267;-49
2022/08/17 05:52:03;;;;;;;2.67;2.30;;;25.40;99.90;;;;;;5068332;28;20193;-52
2022/08/17 05:54:43;;;;;;;2.55;2.35;;;25.40;99.90;;;;;;5066480;28;20699;-49
2022/08/17 05:57:26;;;;;;;2.80;2.60;;;25.40;99.90;;;;;;5068155;28;20193;-47
2022/08/17 06:00:02;;;;;;;2.85;2.65;;;25.40;99.90;;;;;;5066518;28;20193;-48
2022/08/17 06:02:51;;;;;;;3.42;3.13;;;25.50;99.90;;;;;;5067879;28;20213;-44
2022/08/17 06:05:44;;;;;;;3.00;2.80;;;25.50;99.90;;;;;;5067003;28;20272;-51
2022/08/17 06:08:21;;;;;;;2.40;2.30;;;25.50;99.90;;;;;;5069971;28;20996;-50
2022/08/17 06:10:57;;;;;;;3.05;2.63;;;25.50;99.90;;;;;;5063461;28;20211;-49
2022/08/17 06:13:44;;;;;;;3.67;3.40;;;25.60;99.90;;;;;;5067335;28;20242;-51
2022/08/17 06:16:15;;;;;;;3.60;3.30;;;25.60;99.90;;;;;;5062479;28;20204;-51
2022/08/17 06:18:46;;;;;;;4.80;4.00;;;25.60;99.90;;;;;;5069504;28;20658;-48
2022/08/17 06:21:17;;;;;;;5.20;3.70;;;25.70;99.90;;;;;;5064083;28;20197;-47
2022/08/17 06:23:50;;;;;;;5.88;4.55;;;25.70;99.90;;;;;;5068760;28;20250;-45
2022/08/17 06:26:22;;;;;;;3.40;3.20;;;25.70;99.90;;;;;;5065963;28;20202;-43
2022/08/17 06:28:54;;;;;;;5.63;2.97;;;25.70;99.90;;;;;;5067386;28;20276;-44
2022/08/17 06:31:26;;;;;;;3.25;2.95;;;25.70;99.90;;;;;;5064775;28;20193;-44
2022/08/17 06:33:53;;;;;;;3.17;2.97;;;25.70;99.90;;;;;;5068695;28;20193;-47
2022/08/17 06:36:38;;;;;;;2.90;2.70;;;25.70;99.90;;;;;;5067180;28;20228;-48
2022/08/17 06:39:25;;;;;;;2.70;2.60;;;25.70;99.90;;;;;;5064442;28;20204;-51
2022/08/17 06:42:01;;;;;;;3.08;2.80;;;25.70;99.90;;;;;;5070322;28;20186;-51
2022/08/17 06:44:36;;;;;;;7.25;2.45;;;25.60;99.90;;;;;;5066074;28;20242;-50
2022/08/17 06:47:09;;;;;;;2.90;2.70;;;25.60;99.90;;;;;;5065673;28;20196;-49
2022/08/17 06:49:44;;;;;;;2.72;2.53;;;25.60;99.90;;;;;;5064604;28;20291;-49
2022/08/17 06:52:18;;;;;;;2.88;2.67;;;25.60;99.90;;;;;;5066963;28;20639;-48
2022/08/17 06:54:56;;;;;;;2.58;2.25;;;25.60;99.90;;;;;;5062827;28;20244;-46
2022/08/17 06:57:28;;;;;;;3.53;2.53;;;25.60;99.90;;;;;;5064257;28;20185;-42
2022/08/17 06:59:59;;;;;;;2.10;2.00;;;25.60;99.90;;;;;;5062908;28;20185;-49
2022/08/17 07:02:40;;;;;;;2.05;1.95;;;25.60;99.90;;;;;;5065783;28;20627;-48
2022/08/17 07:05:08;;;;;;;2.22;1.98;;;25.60;99.90;;;;;;5067103;28;20331;-44
2022/08/17 07:10:27;;;;;;;2.75;2.10;;;25.70;99.90;;;;;;5067029;28;20209;-46
2022/08/17 07:12:58;;;;;;;2.25;2.00;;;25.70;99.90;;;;;;5063615;28;20264;-44
2022/08/17 07:15:40;;;;;;;2.42;2.10;;;25.70;99.90;;;;;;5062302;28;20205;-44
2022/08/17 07:18:07;;;;;;;2.97;2.55;;;25.60;99.90;;;;;;5065045;28;20262;-42
2022/08/17 07:20:34;;;;;;;2.75;2.55;;;25.60;99.90;;;;;;5059567;28;20194;-43
2022/08/17 07:23:07;;;;;;;2.22;2.08;;;25.70;99.90;;;;;;5062250;28;20607;-47
2022/08/17 07:25:35;;;;;;;2.58;2.38;;;25.70;99.90;;;;;;5063958;28;20217;-47
2022/08/17 07:28:06;;;;;;;2.60;2.42;;;25.70;99.90;;;;;;5066408;28;20708;-52
2022/08/17 07:30:35;;;;;;;2.47;2.17;;;25.70;99.90;;;;;;5066624;28;20209;-50
2022/08/17 07:33:09;;;;;;;2.97;2.70;;;25.80;99.90;;;;;;5066285;28;20193;-51
2022/08/17 07:35:39;;;;;;;3.17;2.22;;;25.90;99.90;;;;;;5065181;28;20232;-47
2022/08/17 07:38:12;;;;;;;2.67;2.47;;;26.00;99.90;;;;;;5068217;28;20193;-47
2022/08/17 07:40:42;;;;;;;2.13;2.03;;;26.00;99.90;;;;;;5069091;28;20192;-46
2022/08/17 07:43:20;;;;;;;2.17;2.00;;;26.20;99.90;;;;;;5066493;28;20642;-51
2022/08/17 07:49:33;;;;;;;2.08;1.98;;;26.30;99.90;;;;;;5065575;28;20197;-46
2022/08/17 07:52:04;;;;;;;1.88;1.77;;;26.50;99.90;;;;;;5063318;28;20197;-46
2022/08/17 07:54:35;;;;;;;2.35;2.15;;;26.60;99.90;;;;;;5066120;28;20236;-51
2022/08/17 07:57:28;;;;;;;1.83;1.73;;;26.60;99.90;;;;;;5063769;28;20288;-50
2022/08/17 08:00:19;;;;;;;3.15;2.85;;;26.70;99.90;;;;;;5063826;28;20197;-49
2022/08/17 08:03:00;;;;;;;2.33;2.22;;;26.80;99.90;;;;;;5065163;28;20193;-49
2022/08/17 08:05:29;;;;;;;2.28;2.10;;;26.80;99.90;;;;;;5061600;28;20225;-51
2022/08/17 08:07:59;;;;;;;2.13;1.95;;;26.90;99.90;;;;;;5064715;28;20197;-50
2022/08/17 08:10:31;;;;;;;2.28;2.17;;;27.00;99.90;;;;;;5063977;28;20205;-51
2022/08/17 08:13:07;;;;;;;2.00;1.90;;;27.00;99.90;;;;;;5064688;28;20754;-50
2022/08/17 08:15:37;;;;;;;1.90;1.80;;;27.10;99.90;;;;;;5065932;28;20275;-51
2022/08/17 08:18:18;;;;;;;1.80;1.70;;;27.20;99.90;;;;;;5062225;28;20196;-46
2022/08/17 08:20:49;;;;;;;2.20;1.98;;;27.30;99.90;;;;;;5063076;28;20239;-50
2022/08/17 08:23:28;;;;;;;3.22;2.92;;;27.30;99.90;;;;;;5066191;28;20600;-51
2022/08/17 08:26:09;;;;;;;7.80;3.80;;;27.40;99.90;;;;;;5065164;28;20700;-47
2022/08/17 08:28:51;;;;;;;4.38;3.92;;;27.50;99.90;;;;;;5064293;28;20197;-49
2022/08/17 08:31:26;;;;;;;3.55;3.25;;;27.60;99.90;;;;;;5066469;28;20203;-49
2022/08/17 08:34:07;;;;;;;3.10;2.90;;;27.60;99.90;;;;;;5065714;28;20208;-50
2022/08/17 08:36:45;;;;;;;3.03;2.83;;;27.70;99.90;;;;;;5066968;28;20615;-48
2022/08/17 08:39:19;;;;;;;3.17;2.80;;;27.70;99.90;;;;;;5067190;28;20202;-48
2022/08/17 08:41:57;;;;;;;3.53;2.08;;;27.80;99.90;;;;;;5065873;28;20192;-50
2022/08/17 08:44:36;;;;;;;2.10;2.00;;;27.90;99.90;;;;;;5065821;28;20193;-50
2022/08/17 08:47:13;;;;;;;2.17;2.08;;;28.00;99.90;;;;;;5067842;28;20673;-49
2022/08/17 08:49:56;;;;;;;2.20;2.10;;;28.00;99.90;;;;;;5066949;28;20209;-51
2022/08/17 08:52:40;;;;;;;1.98;1.88;;;28.10;99.90;;;;;;5067946;28;20246;-49
2022/08/17 08:55:13;;;;;;;1.60;1.50;;;28.10;99.90;;;;;;5067180;28;20194;-48
2022/08/17 08:57:45;;;;;;;2.40;2.20;;;28.20;99.90;;;;;;5068468;28;20224;-47
2022/08/17 09:00:16;;;;;;;2.10;2.00;;;28.20;99.90;;;;;;5070738;28;20204;-49
2022/08/17 09:03:17;;;;;;;3.05;2.83;;;28.30;99.90;;;;;;5066999;28;20574;-51
2022/08/17 09:06:05;;;;;;;2.50;2.30;;;28.30;99.90;;;;;;5058329;28;20204;-50
2022/08/17 09:08:44;;;;;;;2.05;1.95;;;28.40;99.90;;;;;;5069613;28;20197;-48
2022/08/17 09:11:17;;;;;;;4.40;2.00;;;28.40;99.90;;;;;;5068960;28;20209;-55
2022/08/17 09:13:55;;;;;;;2.45;2.25;;;28.50;99.90;;;;;;5069699;28;20320;-49
2022/08/17 09:16:29;;;;;;;3.75;2.50;;;28.50;99.90;;;;;;5069807;28;20224;-50
2022/08/17 09:19:03;;;;;;;2.78;2.58;;;28.60;99.90;;;;;;5065149;28;20514;-47
2022/08/17 09:21:38;;;;;;;2.05;1.95;;;28.70;99.90;;;;;;5069159;28;20294;-48
2022/08/17 09:24:11;;;;;;;2.10;2.00;;;28.70;99.90;;;;;;5066887;28;20294;-49
2022/08/17 09:26:45;;;;;;;2.17;2.08;;;28.80;99.90;;;;;;5069901;28;20652;-48
2022/08/17 09:29:14;;;;;;;3.10;2.80;;;28.90;99.90;;;;;;5066370;28;20205;-50
2022/08/17 09:31:52;;;;;;;2.75;2.55;;;28.90;99.70;;;;;;5068379;28;20205;-47
2022/08/17 09:34:27;;;;;;;2.60;2.40;;;29.00;99.60;;;;;;5066969;28;20217;-49
2022/08/17 09:37:02;;;;;;;2.10;2.00;;;29.00;99.50;;;;;;5064360;28;20201;-51
2022/08/17 09:39:36;;;;;;;2.38;2.25;;;29.10;99.40;;;;;;5067411;28;20266;-52
2022/08/17 09:42:10;;;;;;;2.50;2.30;;;29.10;99.30;;;;;;5071839;28;20564;-52
2022/08/17 09:44:40;;;;;;;2.65;2.55;;;29.20;99.10;;;;;;5066296;28;20197;-47
2022/08/17 09:47:16;;;;;;;2.15;2.05;;;29.30;99.00;;;;;;5069883;28;20197;-50
2022/08/17 09:49:48;;;;;;;2.35;2.25;;;29.40;98.90;;;;;;5067711;28;20192;-50
2022/08/17 09:52:20;;;;;;;2.70;2.50;;;29.40;98.70;;;;;;5067326;28;20193;-47
2022/08/17 09:54:49;;;;;;;2.25;2.15;;;29.50;98.60;;;;;;5064507;28;20619;-52
2022/08/17 09:57:29;;;;;;;2.30;2.20;;;29.50;98.40;;;;;;5067523;28;20243;-51
2022/08/17 10:00:23;;;;;;;2.28;2.17;;;29.60;98.30;;;;;;5067192;28;20212;-48
2022/08/17 10:03:22;;;;;;;2.30;2.20;;;29.70;98.20;;;;;;5061358;28;20213;-51
2022/08/17 10:05:55;;;;;;;2.60;2.25;;;29.70;98.00;;;;;;5065854;28;20219;-46
2022/08/17 10:08:29;;;;;;;2.10;2.00;;;29.80;97.90;;;;;;5066682;28;20211;-47
2022/08/17 10:11:11;;;;;;;2.42;2.28;;;29.90;97.90;;;;;;5064475;28;20197;-50
2022/08/17 10:13:45;;;;;;;4.55;3.65;;;29.90;97.70;;;;;;5063838;28;20573;-46
2022/08/17 10:16:20;;;;;;;4.95;2.95;;;30.00;97.50;;;;;;5063096;28;20648;-52
2022/08/17 10:19:00;;;;;;;2.92;2.72;;;30.00;97.40;;;;;;5065718;28;20200;-48
2022/08/17 10:27:10;;;;;;;15.18;3.50;;;30.10;97.20;;;;;;5063453;28;20578;-52
2022/08/17 10:29:41;;;;;;;3.00;2.80;;;30.10;97.30;;;;;;5063688;28;20205;-49
2022/08/17 10:32:13;;;;;;;3.13;2.92;;;30.20;97.50;;;;;;5066322;28;20282;-52
2022/08/17 10:35:02;;;;;;;3.40;3.10;;;30.20;97.60;;;;;;5062931;28;20215;-49
2022/08/17 10:38:04;;;;;;;2.97;2.78;;;30.20;97.70;;;;;;5066628;28;20205;-51
2022/08/17 10:40:36;;;;;;;2.90;2.70;;;30.20;97.80;;;;;;5066073;28;20648;-50
2022/08/17 10:43:21;;;;;;;2.50;2.40;;;30.30;97.90;;;;;;5066082;28;20774;-52
2022/08/17 10:45:55;;;;;;;2.60;2.40;;;30.30;97.90;;;;;;5066359;28;20185;-46
2022/08/17 10:48:31;;;;;;;2.72;2.60;;;30.30;97.90;;;;;;5064506;28;20193;-46
2022/08/17 10:51:06;;;;;;;3.80;2.83;;;30.40;97.80;;;;;;5066577;28;20683;-49
2022/08/17 10:54:00;;;;;;;2.90;2.70;;;30.40;97.70;;;;;;5063267;28;20193;-51
2022/08/17 10:56:55;;;;;;;3.45;3.05;;;30.40;97.40;;;;;;5065806;28;20201;-45
2022/08/17 10:59:49;;;;;;;3.60;3.30;;;30.40;97.00;;;;;;5042908;28;20219;-50
2022/08/17 11:02:26;;;;;;;3.45;3.20;;;30.40;96.70;;;;;;5063249;28;20186;-46
2022/08/17 11:05:26;;;;;;;3.95;3.30;;;30.50;96.40;;;;;;5077122;28;21007;-48
2022/08/17 11:08:10;;;;;;;6.38;4.40;;;30.50;96.20;;;;;;5063971;28;20190;-51
2022/08/17 11:10:53;;;;;;;3.67;3.45;;;30.50;95.60;;;;;;5066481;28;20206;-49
2022/08/17 11:13:32;;;;;;;3.47;3.28;;;30.50;95.70;;;;;;5063824;28;20582;-51
2022/08/17 11:16:14;;;;;;;3.13;2.92;;;30.60;96.10;;;;;;5062058;28;20253;-49
2022/08/17 11:19:23;;;;;;;2.67;2.47;;;30.60;95.70;;;;;;5065203;28;20555;-48
2022/08/17 11:22:15;;;;;;;3.72;2.70;;;30.70;95.70;;;;;;5031055;28;20338;-46
2022/08/17 11:24:46;;;;;;;2.20;2.10;;;30.80;95.50;;;;;;5062635;28;20212;-49
2022/08/17 11:27:24;;;;;;;3.40;3.20;;;30.80;95.40;;;;;;5061938;28;20672;-51
2022/08/17 11:29:55;;;;;;;3.55;3.30;;;30.80;95.20;;;;;;5063204;28;20235;-49
2022/08/17 11:32:37;;;;;;;3.40;3.20;;;30.80;95.10;;;;;;5065080;28;20217;-47
2022/08/17 11:35:12;;;;;;;2.65;2.45;;;30.90;95.10;;;;;;5063811;28;20203;-47
2022/08/17 11:37:52;;;;;;;2.30;2.20;;;30.90;94.90;;;;;;5064246;28;20209;-44
2022/08/17 11:40:35;;;;;;;3.28;2.72;;;31.00;94.80;;;;;;5069468;28;20234;-48
2022/08/17 11:43:40;;;;;;;3.33;3.13;;;31.00;94.90;;;;;;5068018;28;20231;-46
2022/08/17 11:46:19;;;;;;;3.10;2.85;;;31.10;94.40;;;;;;5059109;28;20676;-48
2022/08/17 11:52:12;;;;;;;3.72;3.42;;;31.10;93.40;;;;;;5063179;28;20217;-44
2022/08/17 11:54:45;;;;;;;3.67;3.13;;;31.20;93.40;;;;;;5065140;28;20600;-49
2022/08/17 11:57:59;;;;;;;2.92;2.72;;;31.10;93.20;;;;;;5062102;28;20579;-49
2022/08/17 12:00:57;;;;;;;3.65;3.35;;;31.20;93.00;;;;;;5064042;28;20276;-48
2022/08/17 12:03:42;;;;;;;7.57;3.28;;;31.30;92.70;;;;;;5027993;28;20305;-52
2022/08/17 12:06:26;;;;;;;3.60;3.30;;;31.30;92.30;;;;;;5064553;28;20197;-46
2022/08/17 12:08:55;;;;;;;3.97;3.67;;;31.30;92.00;;;;;;5061792;28;20557;-44
2022/08/17 12:11:29;;;;;;;2.85;2.70;;;31.30;92.00;;;;;;5065659;28;20224;-51
2022/08/17 12:13:59;;;;;;;3.00;2.80;;;31.40;91.90;;;;;;5065703;28;20280;-49
2022/08/17 12:16:26;;;;;;;2.53;2.42;;;31.40;91.80;;;;;;5062565;28;20550;-49
2022/08/17 12:18:57;;;;;;;3.88;3.15;;;31.40;91.60;;;;;;5067863;28;20219;-52
2022/08/17 12:21:42;;;;;;;3.38;3.08;;;31.40;91.30;;;;;;5070160;28;20188;-50
2022/08/17 12:24:24;;;;;;;3.20;3.00;;;31.40;91.40;;;;;;5070031;28;20193;-50
2022/08/17 12:26:53;;;;;;;4.28;3.88;;;31.50;91.20;;;;;;5066552;28;20194;-54
2022/08/17 12:29:23;;;;;;;3.92;3.58;;;31.50;91.00;;;;;;5069104;28;20215;-51
2022/08/17 12:31:53;;;;;;;3.00;2.80;;;31.50;90.90;;;;;;5068519;28;20286;-51
2022/08/17 12:34:25;;;;;;;3.03;2.83;;;31.50;91.00;;;;;;5066383;28;20201;-50
2022/08/17 12:37:00;;;;;;;5.10;4.30;;;31.50;90.90;;;;;;5064818;28;20193;-49
2022/08/17 12:39:28;;;;;;;3.83;3.53;;;31.50;90.70;;;;;;5071141;28;20334;-49
2022/08/17 12:41:57;;;;;;;4.38;4.07;;;31.50;90.70;;;;;;5067670;28;20194;-51
2022/08/17 12:44:28;;;;;;;4.00;3.70;;;31.50;90.90;;;;;;5069312;28;20228;-49
2022/08/17 12:47:00;;;;;;;4.35;3.95;;;31.50;91.00;;;;;;5069877;28;20358;-51
2022/08/17 12:49:34;;;;;;;4.47;4.07;;;31.50;90.80;;;;;;5069654;28;20246;-47
2022/08/17 12:52:10;;;;;;;12.20;4.35;;;31.50;90.90;;;;;;5070070;28;20292;-46
2022/08/17 12:54:48;;;;;;;4.38;4.05;;;31.50;90.90;;;;;;5069314;28;20664;-51
2022/08/17 12:57:19;;;;;;;4.30;3.75;;;31.50;90.80;;;;;;5066585;28;20201;-52
2022/08/17 12:59:53;;;;;;;4.65;4.07;;;31.50;90.80;;;;;;5065255;28;20276;-48
2022/08/17 13:02:41;;;;;;;4.20;3.92;;;31.40;90.80;;;;;;5070586;28;20189;-48
2022/08/17 13:05:17;;;;;;;4.20;3.83;;;31.50;91.00;;;;;;5066540;28;20255;-47
2022/08/17 13:07:46;;;;;;;4.15;3.85;;;31.50;90.90;;;;;;5065641;28;20678;-49
2022/08/17 13:10:21;;;;;;;4.82;4.43;;;31.50;90.90;;;;;;5068306;28;20592;-51
2022/08/17 13:12:49;;;;;;;4.13;3.75;;;31.50;90.80;;;;;;5067137;28;20224;-49
2022/08/17 13:15:28;;;;;;;4.53;4.22;;;31.50;90.70;;;;;;5060496;28;20226;-46
2022/08/17 13:18:06;;;;;;;4.00;3.70;;;31.60;90.70;;;;;;5066948;28;20680;-49
2022/08/17 13:20:33;;;;;;;4.13;3.83;;;31.60;90.70;;;;;;5066284;28;20189;-49
2022/08/17 13:23:04;;;;;;;4.03;3.72;;;31.60;90.60;;;;;;5066322;28;20646;-46
2022/08/17 13:25:32;;;;;;;4.03;3.72;;;31.60;90.50;;;;;;5065395;28;20193;-52
2022/08/17 13:27:59;;;;;;;3.97;3.70;;;31.60;90.40;;;;;;5068018;28;20200;-51
2022/08/17 13:30:32;;;;;;;3.80;3.50;;;31.60;90.70;;;;;;5068479;28;20212;-52
2022/08/17 13:33:01;;;;;;;4.35;4.00;;;31.60;90.30;;;;;;5068538;28;20224;-46
2022/08/17 13:35:40;;;;;;;4.57;4.22;;;31.50;90.00;;;;;;5064404;28;20189;-45
2022/08/17 13:38:09;;;;;;;4.43;3.45;;;31.50;90.00;;;;;;5062870;28;20548;-50
2022/08/17 13:40:43;;;;;;;4.28;3.97;;;31.50;90.10;;;;;;5068709;28;20193;-48
2022/08/17 13:43:10;;;;;;;11.60;4.40;;;31.40;90.10;;;;;;5064963;28;20268;-47